Repto Santiago, Puerto Rico
Current Conditions -  °F | °C
As of 6:53 AM on Tuesday 21 Oct 2014 (Local Time) from TJNR Reporting Station
Light Rain Light Rain  
Wind Chill: 80°   Ceiling: 3100
Heat Index: 85°   Visibility: 3mi
Dew Point: 75°   Wind: 6mph
Humidity: 85%   Direction: 80°E
Pressure: 29.97"   Gusts: NA
Location:  18.2147°N, 65.7358°W
Report Text: TJNR 211053Z AUTO 08005KT 3SM -RA SCT023 BKN031 BKN070 27/24 A2997 RMK AO2 RAB46 SLP148 P0004 T02670239
Loading
Personal Weather Stations






























Interactive Weather Map
Tropical Storm Tracking
New forecast layout! Learn more

10-Day Weather Forecast

Advertisements
Track Severe Weather on mobile